createdAt,value
2018-07-01T00:01:05.713Z,1.57
2018-07-01T00:03:34.826Z,1.82
2018-07-01T00:06:04.125Z,1.47
2018-07-01T00:08:33.265Z,1.07
2018-07-01T00:11:02.424Z,1.32
2018-07-01T00:13:31.520Z,1.10
2018-07-01T00:16:00.642Z,1.30
2018-07-01T00:18:29.767Z,1.50
2018-07-01T00:20:58.882Z,1.10
2018-07-01T00:23:28.025Z,1.27
2018-07-01T00:25:57.124Z,1.40
2018-07-01T00:28:26.386Z,1.77
2018-07-01T00:30:55.513Z,1.40
2018-07-01T00:33:24.613Z,1.40
2018-07-01T00:35:54.126Z,1.67
2018-07-01T00:38:23.239Z,1.45
2018-07-01T00:40:52.362Z,1.52
2018-07-01T00:43:21.493Z,1.50
2018-07-01T00:45:50.600Z,1.40
2018-07-01T00:48:19.680Z,1.67
2018-07-01T00:50:48.789Z,1.42
2018-07-01T00:53:17.879Z,1.82
2018-07-01T00:55:46.945Z,1.45
2018-07-01T00:58:16.065Z,1.40
2018-07-01T01:00:45.207Z,1.40
2018-07-01T01:03:14.276Z,1.50
2018-07-01T01:05:43.429Z,1.37
2018-07-01T01:08:12.191Z,1.95
2018-07-01T01:10:40.889Z,1.30
2018-07-01T01:13:09.916Z,1.37
2018-07-01T01:15:39.068Z,1.60
2018-07-01T01:18:08.158Z,1.72
2018-07-01T01:20:37.281Z,1.85
2018-07-01T01:23:06.373Z,1.40
2018-07-01T01:25:35.164Z,1.30
2018-07-01T01:28:04.255Z,1.55
2018-07-01T01:30:33.340Z,1.42
2018-07-01T01:33:02.192Z,1.60
2018-07-01T01:35:31.252Z,1.30
2018-07-01T01:38:00.485Z,1.55
2018-07-01T01:40:34.012Z,1.47
2018-07-01T01:43:07.552Z,1.22
2018-07-01T01:45:52.433Z,1.55
2018-07-01T01:48:25.819Z,1.30
2018-07-01T01:51:04.058Z,1.70
2018-07-01T01:53:37.512Z,1.17
2018-07-01T01:58:13.359Z,1.50
2018-07-01T02:00:47.711Z,1.37
2018-07-01T02:03:21.422Z,1.30
2018-07-01T02:05:58.495Z,2.02
2018-07-01T02:08:31.334Z,1.50
2018-07-01T02:11:00.520Z,1.32
2018-07-01T02:13:30.495Z,1.02
2018-07-01T02:16:04.860Z,1.20
2018-07-01T02:18:34.269Z,1.22
2018-07-01T02:21:03.374Z,1.70
2018-07-01T02:23:41.645Z,1.30
2018-07-01T02:26:10.807Z,1.70
2018-07-01T02:28:39.634Z,1.32
2018-07-01T02:31:08.644Z,1.65
2018-07-01T02:33:37.760Z,1.65
2018-07-01T02:36:06.874Z,1.45
2018-07-01T02:38:35.960Z,1.30
2018-07-01T02:41:05.093Z,1.47
2018-07-01T02:43:34.199Z,1.37
2018-07-01T02:46:03.331Z,1.55
2018-07-01T02:48:32.429Z,1.60
2018-07-01T02:51:01.504Z,1.00
2018-07-01T02:53:30.581Z,1.62
2018-07-01T02:55:59.673Z,1.52
2018-07-01T02:58:28.778Z,1.40
2018-07-01T03:00:57.864Z,1.40
2018-07-01T03:03:26.938Z,1.72
2018-07-01T03:05:56.030Z,1.57
2018-07-01T03:08:25.109Z,1.40
2018-07-01T03:10:54.176Z,1.60
2018-07-01T03:13:23.317Z,1.50
2018-07-01T03:15:52.383Z,1.40
2018-07-01T03:18:21.434Z,1.40
2018-07-01T03:20:50.480Z,1.40
2018-07-01T03:23:19.548Z,1.20
2018-07-01T03:25:48.616Z,1.35
2018-07-01T03:28:18.268Z,1.50
2018-07-01T03:30:47.416Z,1.50
2018-07-01T03:33:16.438Z,1.82
2018-07-01T03:35:45.532Z,1.42
2018-07-01T03:38:14.549Z,1.50
2018-07-01T03:40:43.662Z,1.50
2018-07-01T03:43:12.393Z,1.60
2018-07-01T03:45:41.360Z,1.60
2018-07-01T03:48:10.400Z,1.67
2018-07-01T03:50:39.428Z,1.67
2018-07-01T03:53:08.518Z,1.32
2018-07-01T03:55:37.566Z,1.50
2018-07-01T03:58:06.665Z,1.75
2018-07-01T04:00:35.759Z,1.90
2018-07-01T04:03:04.858Z,1.60
2018-07-01T04:05:33.890Z,1.90
2018-07-01T04:08:02.962Z,1.70
2018-07-01T04:10:32.057Z,2.00
2018-07-01T04:13:01.125Z,2.00
2018-07-01T04:15:30.180Z,2.12
2018-07-01T04:17:58.965Z,1.40
2018-07-01T04:20:27.916Z,1.90
2018-07-01T04:22:56.944Z,1.95
2018-07-01T04:25:26.007Z,1.62
2018-07-01T04:27:55.102Z,2.00
2018-07-01T04:30:24.135Z,2.12
2018-07-01T04:32:53.208Z,1.70
2018-07-01T04:35:22.337Z,1.60
2018-07-01T04:37:51.356Z,1.50
2018-07-01T04:40:20.445Z,1.75
2018-07-01T04:42:49.517Z,1.75
2018-07-01T04:45:18.718Z,1.75
2018-07-01T04:47:47.523Z,1.95
2018-07-01T04:50:16.565Z,1.65
2018-07-01T04:52:45.604Z,1.47
2018-07-01T04:55:14.777Z,1.20
2018-07-01T04:57:43.769Z,1.17
2018-07-01T05:00:12.785Z,1.52
2018-07-01T05:02:41.859Z,1.05
2018-07-01T05:05:10.944Z,1.12
2018-07-01T05:07:39.972Z,1.00
2018-07-01T05:10:09.033Z,1.30
2018-07-01T05:12:38.060Z,1.10
2018-07-01T05:15:07.200Z,1.00
2018-07-01T05:17:36.212Z,1.02
2018-07-01T05:20:05.292Z,0.88
2018-07-01T05:22:34.390Z,0.60
2018-07-01T05:25:03.476Z,0.98
2018-07-01T05:27:32.563Z,0.80
2018-07-01T05:30:01.632Z,0.80
2018-07-01T05:32:30.696Z,0.95
2018-07-01T05:34:59.819Z,0.88
2018-07-01T05:37:28.922Z,1.02
2018-07-01T05:39:58.005Z,0.55
2018-07-01T05:42:27.052Z,0.65
2018-07-01T05:44:56.096Z,0.85
2018-07-01T05:47:25.184Z,0.60
2018-07-01T05:49:54.263Z,0.75
2018-07-01T05:52:23.412Z,0.50
2018-07-01T05:54:52.495Z,0.60
2018-07-01T05:57:21.544Z,0.57
2018-07-01T05:59:50.601Z,0.80
2018-07-01T06:02:19.805Z,0.60
2018-07-01T06:04:48.957Z,0.60
2018-07-01T06:07:18.015Z,0.60
2018-07-01T06:09:47.117Z,0.62
2018-07-01T06:12:16.256Z,0.50
2018-07-01T06:14:45.418Z,0.75
2018-07-01T06:17:14.517Z,0.65
2018-07-01T06:19:43.782Z,0.70
2018-07-01T06:22:12.878Z,0.60
2018-07-01T06:24:42.105Z,0.50
2018-07-01T06:27:11.289Z,0.60
2018-07-01T06:29:40.382Z,0.45
2018-07-01T06:32:09.622Z,0.78
2018-07-01T06:34:39.056Z,0.60
2018-07-01T06:37:08.256Z,0.70
2018-07-01T06:39:37.444Z,0.53
2018-07-01T06:42:06.580Z,1.02
2018-07-01T06:44:35.911Z,0.60
2018-07-01T06:47:05.060Z,0.60
2018-07-01T06:49:34.347Z,0.50
2018-07-01T06:52:06.412Z,0.60
2018-07-01T06:54:35.605Z,0.47
2018-07-01T06:57:05.098Z,0.50
2018-07-01T06:59:35.610Z,0.80
2018-07-01T07:02:04.946Z,0.50
2018-07-01T07:04:34.205Z,0.60
2018-07-01T07:07:03.768Z,0.65
2018-07-01T07:09:32.908Z,0.50
2018-07-01T07:12:02.297Z,0.60
2018-07-01T07:14:31.792Z,0.50
2018-07-01T07:17:01.094Z,0.88
2018-07-01T07:19:30.144Z,0.80
2018-07-01T07:21:59.269Z,0.40
2018-07-01T07:24:28.454Z,0.50
2018-07-01T07:26:58.006Z,0.70
2018-07-01T07:29:27.087Z,0.50
2018-07-01T07:31:56.299Z,0.90
2018-07-01T07:34:25.357Z,0.60
2018-07-01T07:36:54.442Z,0.50
2018-07-01T07:39:23.646Z,0.57
2018-07-01T07:41:52.865Z,0.50
2018-07-01T07:44:22.054Z,0.77
2018-07-01T07:46:51.203Z,0.80
2018-07-01T07:49:20.484Z,0.60
2018-07-01T07:51:49.743Z,0.97
2018-07-01T07:54:19.452Z,0.60
2018-07-01T07:56:51.484Z,0.80
2018-07-01T07:59:21.892Z,0.57
2018-07-01T08:01:52.537Z,0.77
2018-07-01T08:04:23.069Z,0.65
2018-07-01T08:06:52.682Z,0.60
2018-07-01T08:09:21.927Z,0.50
2018-07-01T08:11:51.014Z,0.70
2018-07-01T08:14:20.256Z,0.70
2018-07-01T08:16:49.737Z,0.50
2018-07-01T08:19:18.897Z,0.60
2018-07-01T08:21:48.091Z,0.50
2018-07-01T08:24:17.207Z,0.70
2018-07-01T08:26:47.766Z,0.60
2018-07-01T08:29:16.896Z,0.60
2018-07-01T08:31:46.593Z,0.60
2018-07-01T08:34:15.711Z,0.60
2018-07-01T08:36:44.904Z,0.93
2018-07-01T08:39:14.411Z,0.67
2018-07-01T08:41:54.502Z,0.50
2018-07-01T08:44:23.648Z,0.67
2018-07-01T08:46:52.767Z,0.60
2018-07-01T08:49:21.830Z,0.50
2018-07-01T08:51:51.045Z,0.70
2018-07-01T08:54:20.164Z,0.73
2018-07-01T08:56:49.247Z,0.70
2018-07-01T08:59:18.324Z,0.70
2018-07-01T09:01:47.413Z,0.60
2018-07-01T09:04:16.532Z,0.70
2018-07-01T09:06:45.600Z,0.50
2018-07-01T09:09:15.073Z,0.60
2018-07-01T09:11:44.169Z,0.70
2018-07-01T09:14:13.185Z,0.50
2018-07-01T09:16:42.288Z,0.60
2018-07-01T09:19:11.392Z,0.60
2018-07-01T09:21:40.493Z,0.97
2018-07-01T09:24:09.580Z,0.97
2018-07-01T09:26:38.613Z,0.80
2018-07-01T09:29:07.704Z,0.67
2018-07-01T09:31:36.777Z,0.53
2018-07-01T09:34:05.950Z,0.67
2018-07-01T09:36:34.989Z,0.43
2018-07-01T09:39:06.288Z,0.67
2018-07-01T09:41:35.234Z,0.50
2018-07-01T09:44:04.282Z,0.70
2018-07-01T09:46:33.203Z,0.50
2018-07-01T09:49:02.301Z,0.60
2018-07-01T09:51:31.383Z,0.60
2018-07-01T09:54:01.324Z,0.63
2018-07-01T09:56:30.370Z,0.70
2018-07-01T09:58:59.929Z,0.50
2018-07-01T10:01:30.102Z,0.50
2018-07-01T10:03:59.201Z,0.57
2018-07-01T10:06:28.730Z,0.60
2018-07-01T10:08:58.548Z,0.70
2018-07-01T10:11:28.121Z,0.60
2018-07-01T10:13:56.912Z,0.90
2018-07-01T10:16:25.836Z,0.70
2018-07-01T10:18:54.931Z,0.60
2018-07-01T10:21:24.011Z,0.60
2018-07-01T10:23:53.092Z,0.73
2018-07-01T10:26:22.145Z,0.60
2018-07-01T10:29:09.849Z,0.70
2018-07-01T10:31:39.545Z,0.50
2018-07-01T10:34:09.604Z,0.67
2018-07-01T10:36:38.742Z,0.60
2018-07-01T10:39:12.456Z,0.70
2018-07-01T10:41:41.571Z,0.70
2018-07-01T10:44:10.704Z,0.50
2018-07-01T10:46:39.808Z,0.77
2018-07-01T10:49:08.992Z,0.60
2018-07-01T10:51:38.030Z,0.70
2018-07-01T10:54:07.123Z,0.53
2018-07-01T10:56:36.245Z,0.57
2018-07-01T10:59:05.648Z,0.70
2018-07-01T11:01:34.880Z,0.63
2018-07-01T11:04:04.124Z,0.70
2018-07-01T11:06:33.228Z,0.60
2018-07-01T11:09:02.382Z,0.60
2018-07-01T11:11:31.479Z,0.60
2018-07-01T11:14:00.540Z,0.40
2018-07-01T11:16:29.698Z,0.77
2018-07-01T11:18:58.792Z,0.70
2018-07-01T11:21:27.898Z,0.50
2018-07-01T11:23:56.964Z,0.73
2018-07-01T11:26:25.983Z,0.63
2018-07-01T11:28:55.137Z,0.70
2018-07-01T11:31:24.190Z,0.60
2018-07-01T11:33:53.280Z,0.70
2018-07-01T11:36:22.355Z,0.80
2018-07-01T11:38:51.395Z,0.63
2018-07-01T11:41:20.431Z,0.90
2018-07-01T11:43:49.503Z,0.70
2018-07-01T11:46:18.620Z,0.80
2018-07-01T11:48:47.658Z,0.70
2018-07-01T11:51:16.881Z,0.70
2018-07-01T11:53:45.970Z,0.50
2018-07-01T11:56:15.028Z,0.80
2018-07-01T11:58:44.127Z,0.70
2018-07-01T12:01:13.220Z,0.60
2018-07-01T12:03:42.293Z,0.60
2018-07-01T12:06:11.031Z,0.80
2018-07-01T12:08:39.987Z,0.50
2018-07-01T12:11:09.269Z,0.83
2018-07-01T12:13:38.343Z,0.70
2018-07-01T12:16:07.411Z,0.70
2018-07-01T12:18:36.467Z,0.60
2018-07-01T12:21:05.528Z,0.60
2018-07-01T12:23:34.785Z,0.70
2018-07-01T12:26:03.990Z,0.60
2018-07-01T12:28:33.013Z,0.50
2018-07-01T12:31:02.697Z,0.90
2018-07-01T12:33:31.820Z,0.83
2018-07-01T12:36:01.141Z,0.60
2018-07-01T12:38:30.484Z,0.70
2018-07-01T12:40:59.599Z,0.60
2018-07-01T12:43:28.837Z,0.60
2018-07-01T12:45:58.099Z,0.50
2018-07-01T12:48:27.474Z,0.60
2018-07-01T12:50:57.677Z,0.60
2018-07-01T12:53:26.948Z,0.50
2018-07-01T12:55:56.246Z,0.70
2018-07-01T12:58:25.610Z,0.70
2018-07-01T13:00:54.860Z,0.60
2018-07-01T13:03:24.428Z,0.60
2018-07-01T13:05:53.521Z,0.80
2018-07-01T13:08:23.229Z,0.67
2018-07-01T13:10:52.312Z,0.80
2018-07-01T13:13:21.422Z,0.70
2018-07-01T13:15:50.805Z,0.87
2018-07-01T13:18:20.042Z,0.70
2018-07-01T13:20:49.083Z,0.60
2018-07-01T13:23:18.114Z,0.70
2018-07-01T13:25:47.233Z,0.70
2018-07-01T13:28:16.289Z,0.53
2018-07-01T13:30:52.744Z,0.67
2018-07-01T13:33:21.915Z,0.57
2018-07-01T13:35:51.044Z,0.57
2018-07-01T13:38:19.803Z,0.60
2018-07-01T13:40:48.507Z,0.60
2018-07-01T13:43:17.443Z,0.60
2018-07-01T13:45:46.531Z,0.70
2018-07-01T13:48:15.580Z,0.73
2018-07-01T13:50:44.637Z,0.67
2018-07-01T13:53:13.729Z,0.80
2018-07-01T13:55:42.777Z,0.50
2018-07-01T13:58:11.801Z,1.53
2018-07-01T14:00:41.012Z,0.60
2018-07-01T14:03:10.084Z,1.90
2018-07-01T14:05:39.168Z,0.70
2018-07-01T14:08:08.576Z,0.60
2018-07-01T14:10:37.608Z,0.57
2018-07-01T14:13:06.724Z,0.57
2018-07-01T14:15:35.764Z,0.80
2018-07-01T14:18:04.873Z,0.60
2018-07-01T14:20:34.090Z,0.60
2018-07-01T14:23:03.174Z,0.53
2018-07-01T14:25:32.287Z,0.50
2018-07-01T14:28:01.479Z,0.60
2018-07-01T14:30:30.523Z,0.70
2018-07-01T14:32:59.588Z,0.70
2018-07-01T14:35:28.764Z,0.60
2018-07-01T14:37:57.960Z,0.70
2018-07-01T14:40:27.185Z,0.97
2018-07-01T14:42:56.328Z,0.50
2018-07-01T14:45:25.425Z,0.57
2018-07-01T14:47:54.592Z,0.80
2018-07-01T14:50:23.633Z,0.80
2018-07-01T14:52:52.751Z,0.90
2018-07-01T14:55:22.037Z,0.67
2018-07-01T14:57:51.149Z,0.80
2018-07-01T15:00:20.344Z,0.60
2018-07-01T15:02:49.395Z,0.60
2018-07-01T15:05:18.489Z,0.87
2018-07-01T15:07:47.583Z,0.60
2018-07-01T15:10:16.613Z,0.50
2018-07-01T15:12:45.719Z,0.60
2018-07-01T15:15:14.826Z,0.60
2018-07-01T15:17:43.973Z,1.20
2018-07-01T15:20:14.181Z,0.90
2018-07-01T15:22:43.311Z,0.70
2018-07-01T15:25:12.420Z,0.90
2018-07-01T15:27:41.549Z,0.70
2018-07-01T15:30:10.666Z,0.70
2018-07-01T15:32:39.749Z,0.80
2018-07-01T15:35:08.927Z,0.90
2018-07-01T15:37:38.035Z,0.80
2018-07-01T15:40:07.826Z,0.90
2018-07-01T15:42:37.178Z,0.60
2018-07-01T15:45:06.677Z,0.50
2018-07-01T15:47:35.821Z,0.70
2018-07-01T15:50:05.197Z,0.73
2018-07-01T15:52:34.340Z,0.73
2018-07-01T15:55:03.594Z,0.90
2018-07-01T15:57:33.367Z,0.67
2018-07-01T16:00:02.515Z,0.60
2018-07-01T16:02:31.673Z,0.90
2018-07-01T16:05:00.780Z,1.23
2018-07-01T16:07:29.832Z,0.90
2018-07-01T16:09:58.953Z,0.70
2018-07-01T16:12:28.053Z,0.73
2018-07-01T16:14:57.129Z,0.77
2018-07-01T16:17:26.244Z,0.77
2018-07-01T16:19:55.335Z,0.70
2018-07-01T16:22:24.433Z,0.83
2018-07-01T16:24:58.781Z,1.00
2018-07-01T16:27:27.913Z,0.60
2018-07-01T16:29:56.968Z,0.80
2018-07-01T16:32:26.107Z,0.70
2018-07-01T16:34:55.140Z,0.83
2018-07-01T16:37:24.678Z,0.80
2018-07-01T16:39:53.739Z,0.80
2018-07-01T16:42:22.839Z,1.10
2018-07-01T16:44:52.095Z,0.60
2018-07-01T16:47:21.252Z,0.80
2018-07-01T16:49:50.322Z,0.77
2018-07-01T16:52:19.406Z,1.20
2018-07-01T16:54:48.502Z,0.70
2018-07-01T16:57:17.552Z,0.73
2018-07-01T16:59:46.729Z,0.70
2018-07-01T17:02:15.794Z,0.73
2018-07-01T17:04:45.161Z,0.80
2018-07-01T17:07:14.176Z,0.70
2018-07-01T17:09:43.196Z,0.67
2018-07-01T17:12:12.274Z,0.70
2018-07-01T17:14:41.466Z,0.55
2018-07-01T17:17:10.392Z,0.80
2018-07-01T17:19:39.412Z,0.67
2018-07-01T17:22:08.738Z,0.70
2018-07-01T17:24:37.837Z,1.13
2018-07-01T17:27:06.927Z,0.60
2018-07-01T17:29:36.142Z,0.62
2018-07-01T17:32:10.569Z,0.78
2018-07-01T17:34:39.774Z,0.70
2018-07-01T17:37:08.803Z,0.80
2018-07-01T17:39:37.916Z,0.60
2018-07-01T17:42:07.156Z,0.80
2018-07-01T17:44:36.216Z,0.90
2018-07-01T17:47:05.300Z,0.70
2018-07-01T17:49:34.396Z,0.60
2018-07-01T17:52:03.425Z,0.68
2018-07-01T17:54:32.231Z,0.50
2018-07-01T17:57:01.169Z,0.93
2018-07-01T17:59:30.209Z,0.50
2018-07-01T18:01:59.549Z,0.45
2018-07-01T18:04:28.644Z,0.82
2018-07-01T18:06:57.707Z,0.60
2018-07-01T18:09:27.047Z,0.40
2018-07-01T18:11:56.185Z,1.12
2018-07-01T18:14:25.229Z,0.60
2018-07-01T18:16:54.304Z,0.50
2018-07-01T18:19:23.400Z,0.50
2018-07-01T18:22:12.589Z,0.57
2018-07-01T18:24:48.931Z,0.60
2018-07-01T18:26:51.218Z,0.60
2018-07-01T18:29:20.708Z,0.60
2018-07-01T18:31:49.600Z,0.62
2018-07-01T18:34:18.712Z,0.68
2018-07-01T18:36:47.964Z,0.60
2018-07-01T18:39:17.130Z,0.70
2018-07-01T18:41:46.341Z,0.60
2018-07-01T18:44:15.559Z,0.60
2018-07-01T18:46:44.746Z,0.60
2018-07-01T18:49:14.098Z,0.60
2018-07-01T18:51:43.352Z,1.00
2018-07-01T18:54:12.697Z,0.65
2018-07-01T18:56:41.883Z,0.70
2018-07-01T18:59:11.029Z,0.70
2018-07-01T19:01:40.350Z,0.70
2018-07-01T19:04:09.933Z,0.60
2018-07-01T19:06:39.124Z,0.90
2018-07-01T19:09:09.541Z,0.70
2018-07-01T19:11:38.772Z,0.65
2018-07-01T19:14:08.121Z,0.50
2018-07-01T19:16:38.167Z,0.50
2018-07-01T19:19:07.380Z,0.50
2018-07-01T19:21:36.506Z,0.40
2018-07-01T19:24:06.118Z,0.60
2018-07-01T19:26:35.287Z,0.70
2018-07-01T19:29:04.398Z,0.85
2018-07-01T19:31:33.527Z,0.68
2018-07-01T19:34:02.868Z,0.53
2018-07-01T19:36:31.931Z,0.62
2018-07-01T19:39:01.040Z,0.60
2018-07-01T19:41:30.133Z,0.70
2018-07-01T19:43:59.210Z,0.65
2018-07-01T19:46:28.356Z,0.50
2018-07-01T19:48:57.470Z,0.72
2018-07-01T19:51:27.644Z,0.45
2018-07-01T19:53:56.879Z,0.50
2018-07-01T19:56:25.999Z,0.70
2018-07-01T19:58:55.086Z,0.65
2018-07-01T20:01:24.289Z,0.62
2018-07-01T20:03:53.465Z,0.60
2018-07-01T20:06:22.646Z,0.50
2018-07-01T20:08:51.815Z,0.80
2018-07-01T20:11:20.959Z,0.90
2018-07-01T20:13:50.064Z,0.70
2018-07-01T20:16:19.410Z,0.70
2018-07-01T20:18:48.620Z,0.60
2018-07-01T20:21:17.801Z,0.60
2018-07-01T20:23:46.937Z,0.80
2018-07-01T20:26:16.037Z,1.45
2018-07-01T20:28:45.144Z,0.78
2018-07-01T20:31:14.359Z,0.88
2018-07-01T20:33:43.449Z,1.00
2018-07-01T20:36:12.614Z,0.70
2018-07-01T20:38:41.697Z,0.65
2018-07-01T20:41:11.197Z,0.42
2018-07-01T20:43:40.821Z,0.62
2018-07-01T20:46:10.419Z,1.20
2018-07-01T20:48:40.042Z,0.80
2018-07-01T20:51:09.322Z,0.75
2018-07-01T20:53:38.442Z,0.70
2018-07-01T20:56:07.509Z,0.50
2018-07-01T20:58:36.607Z,1.30
2018-07-01T21:01:06.250Z,0.98
2018-07-01T21:03:35.253Z,0.60
2018-07-01T21:06:04.671Z,0.72
2018-07-01T21:08:33.684Z,0.70
2018-07-01T21:11:02.764Z,0.60
2018-07-01T21:13:31.781Z,0.70
2018-07-01T21:16:00.957Z,0.98
2018-07-01T21:18:29.972Z,0.72
2018-07-01T21:20:59.069Z,0.88
2018-07-01T21:23:28.132Z,0.88
2018-07-01T21:25:57.192Z,0.95
2018-07-01T21:28:26.326Z,1.25
2018-07-01T21:30:55.355Z,0.80
2018-07-01T21:33:24.411Z,0.70
2018-07-01T21:35:53.442Z,0.82
2018-07-01T21:38:22.544Z,1.27
2018-07-01T21:40:51.549Z,0.80
2018-07-01T21:43:20.638Z,1.20
2018-07-01T21:45:49.720Z,0.82
2018-07-01T21:48:18.789Z,0.80
2018-07-01T21:50:47.829Z,0.80
2018-07-01T21:53:16.936Z,0.85
2018-07-01T21:55:45.967Z,0.90
2018-07-01T21:58:15.041Z,0.82
2018-07-01T22:00:44.146Z,0.70
2018-07-01T22:03:13.228Z,1.42
2018-07-01T22:05:42.321Z,1.30
2018-07-01T22:08:11.386Z,0.90
2018-07-01T22:10:51.731Z,0.90
2018-07-01T22:14:30.763Z,1.10
2018-07-01T22:17:00.157Z,0.82
2018-07-01T22:19:29.324Z,0.90
2018-07-01T22:21:59.007Z,0.90
2018-07-01T22:24:29.184Z,0.90
2018-07-01T22:26:58.247Z,1.10
2018-07-01T22:29:27.331Z,0.88
2018-07-01T22:31:56.457Z,1.00
2018-07-01T22:34:25.608Z,0.80
2018-07-01T22:36:55.118Z,0.80
2018-07-01T22:39:28.342Z,0.78
2018-07-01T22:41:58.301Z,0.90
2018-07-01T22:44:27.796Z,0.90
2018-07-01T22:46:56.888Z,0.80
2018-07-01T22:49:25.992Z,0.60
2018-07-01T22:51:55.021Z,0.60
2018-07-01T22:54:24.120Z,1.05
2018-07-01T22:56:53.179Z,0.80
2018-07-01T22:59:22.269Z,0.88
2018-07-01T23:03:06.010Z,0.70
2018-07-01T23:05:35.096Z,0.70
2018-07-01T23:08:04.214Z,0.70
2018-07-01T23:10:33.573Z,0.90
2018-07-01T23:13:02.723Z,1.20
2018-07-01T23:15:31.772Z,0.90
2018-07-01T23:18:00.829Z,0.80
2018-07-01T23:20:29.953Z,0.85
2018-07-01T23:22:59.011Z,0.93
2018-07-01T23:25:28.064Z,0.82
2018-07-01T23:27:57.126Z,0.80
2018-07-01T23:30:25.867Z,0.82
2018-07-01T23:32:54.838Z,1.07
2018-07-01T23:35:23.889Z,1.40
2018-07-01T23:37:53.139Z,0.90
2018-07-01T23:40:22.239Z,1.45
2018-07-01T23:42:51.265Z,0.80
2018-07-01T23:45:20.343Z,0.70
2018-07-01T23:47:49.416Z,0.80
2018-07-01T23:50:18.502Z,0.85
2018-07-01T23:52:47.527Z,1.00
2018-07-01T23:55:16.612Z,0.90
2018-07-01T23:57:45.655Z,0.80
